Time;durP1;ratioP1;P1;durP2;ratioP2;P2;SDS_P1;SDS_P2;PMS_P1;PMS_P2;Temp;Humidity;BMP_temperature;BMP_pressure;BME280_temperature;BME280_humidity;BME280_pressure;Samples;Min_cycle;Max_cycle;Signal;HPM_P1;HPM_P2
2024/02/11 00:01:56;;;;;;;2.97;2.70;;;;;;;;;;6358032;28;20284;-58
2024/02/11 00:05:04;;;;;;;8.23;3.20;;;;;;;;;;6357934;28;20288;-57
2024/02/11 00:08:10;;;;;;;4.03;2.70;;;;;;;;;;6356870;28;20337;-56
2024/02/11 00:11:14;;;;;;;3.40;3.20;;;;;;;;;;6357889;28;20292;-59
2024/02/11 00:14:19;;;;;;;3.03;2.93;;;;;;;;;;6357449;28;20289;-58
2024/02/11 00:17:23;;;;;;;3.67;3.40;;;;;;;;;;6357552;28;20296;-58
2024/02/11 00:20:28;;;;;;;3.43;3.30;;;;;;;;;;6356952;28;20320;-55
2024/02/11 00:23:34;;;;;;;3.30;3.07;;;;;;;;;;6357436;28;20299;-58
2024/02/11 00:26:41;;;;;;;3.30;3.03;;;;;;;;;;6357811;28;20298;-56
2024/02/11 00:29:44;;;;;;;4.60;3.20;;;;;;;;;;6329751;28;20287;-57
2024/02/11 00:32:48;;;;;;;3.43;3.10;;;;;;;;;;6331874;28;20289;-57
2024/02/11 00:35:59;;;;;;;7.57;3.70;;;;;;;;;;6332426;28;20296;-57
2024/02/11 00:39:05;;;;;;;2.97;2.77;;;;;;;;;;6331607;28;20493;-57
2024/02/11 00:42:09;;;;;;;3.50;3.30;;;;;;;;;;6336903;28;20288;-58
2024/02/11 00:45:13;;;;;;;3.13;3.00;;;;;;;;;;6336625;28;20297;-57
2024/02/11 00:48:17;;;;;;;5.27;3.07;;;;;;;;;;6336603;28;20292;-56
2024/02/11 00:51:23;;;;;;;3.27;3.17;;;;;;;;;;6336850;28;20628;-57
2024/02/11 00:54:27;;;;;;;3.27;3.07;;;;;;;;;;6336061;28;20446;-56
2024/02/11 00:57:30;;;;;;;3.10;2.90;;;;;;;;;;6336499;28;20289;-57
2024/02/11 01:00:34;;;;;;;3.80;3.50;;;;;;;;;;6336472;28;20293;-57
2024/02/11 01:03:38;;;;;;;3.60;3.30;;;;;;;;;;6317971;28;20312;-58
2024/02/11 01:06:44;;;;;;;4.97;3.70;;;;;;;;;;6336616;28;20292;-60
2024/02/11 01:09:47;;;;;;;3.50;3.20;;;;;;;;;;6339666;28;20476;-56
2024/02/11 01:12:51;;;;;;;3.07;2.87;;;;;;;;;;6378759;27;20513;-58
2024/02/11 01:15:55;;;;;;;3.87;3.47;;;;;;;;;;6378531;27;20511;-56
2024/02/11 01:19:00;;;;;;;5.73;3.53;;;;;;;;;;6360810;28;20549;-58
2024/02/11 01:22:06;;;;;;;5.93;3.33;;;;;;;;;;6361421;28;20542;-56
2024/02/11 01:25:10;;;;;;;4.53;3.17;;;;;;;;;;6360716;28;20482;-56
2024/02/11 01:28:14;;;;;;;2.93;2.83;;;;;;;;;;6360763;28;20308;-57
2024/02/11 01:31:18;;;;;;;4.57;3.53;;;;;;;;;;6361164;28;20281;-56
2024/02/11 01:34:22;;;;;;;4.17;3.47;;;;;;;;;;6360767;28;20606;-56
2024/02/11 01:37:27;;;;;;;6.07;3.60;;;;;;;;;;6361203;28;20301;-57
2024/02/11 01:40:32;;;;;;;5.53;4.00;;;;;;;;;;6360652;28;20296;-55
2024/02/11 01:43:36;;;;;;;5.63;4.30;;;;;;;;;;6359129;28;20634;-54
2024/02/11 01:46:41;;;;;;;4.17;3.90;;;;;;;;;;6361099;28;20474;-57
2024/02/11 01:49:45;;;;;;;4.87;3.90;;;;;;;;;;6360481;28;20313;-56
2024/02/11 01:52:52;;;;;;;5.97;3.53;;;;;;;;;;6359227;28;20458;-58
2024/02/11 01:55:56;;;;;;;3.77;3.53;;;;;;;;;;6360332;28;20291;-57
2024/02/11 01:59:00;;;;;;;3.33;3.23;;;;;;;;;;6359901;28;20297;-57
2024/02/11 02:02:10;;;;;;;4.30;3.70;;;;;;;;;;6360220;28;20300;-58
2024/02/11 02:05:15;;;;;;;5.13;3.47;;;;;;;;;;6359874;28;20305;-57
2024/02/11 02:08:21;;;;;;;3.97;3.53;;;;;;;;;;6359809;28;20565;-58
2024/02/11 02:11:25;;;;;;;6.63;3.70;;;;;;;;;;6377619;27;20295;-57
2024/02/11 02:14:29;;;;;;;3.87;3.50;;;;;;;;;;6385149;27;20291;-57
2024/02/11 02:17:35;;;;;;;3.20;3.00;;;;;;;;;;6361968;27;20335;-57
2024/02/11 02:20:39;;;;;;;3.20;3.10;;;;;;;;;;6359779;28;20465;-56
2024/02/11 02:23:44;;;;;;;5.23;3.63;;;;;;;;;;6359083;28;20296;-55
2024/02/11 02:26:48;;;;;;;3.60;3.30;;;;;;;;;;6359649;28;20277;-57
2024/02/11 02:29:52;;;;;;;3.93;3.40;;;;;;;;;;6358942;28;20295;-56
2024/02/11 02:32:56;;;;;;;4.00;3.73;;;;;;;;;;6358861;28;20299;-56
2024/02/11 02:36:01;;;;;;;3.70;3.40;;;;;;;;;;6359380;28;20469;-58
2024/02/11 02:39:06;;;;;;;3.40;3.10;;;;;;;;;;6358620;28;20605;-58
2024/02/11 02:42:12;;;;;;;5.27;3.70;;;;;;;;;;6359347;28;20340;-58
2024/02/11 02:45:16;;;;;;;3.20;3.07;;;;;;;;;;6358802;28;20288;-59
2024/02/11 02:48:20;;;;;;;4.33;2.90;;;;;;;;;;6358728;28;20466;-57
2024/02/11 02:51:24;;;;;;;3.57;3.37;;;;;;;;;;6358874;28;20308;-56
2024/02/11 02:54:29;;;;;;;5.33;3.40;;;;;;;;;;6357877;28;20300;-56
2024/02/11 02:57:34;;;;;;;4.30;3.87;;;;;;;;;;6358325;28;20288;-58
2024/02/11 03:00:38;;;;;;;4.43;3.30;;;;;;;;;;6358648;28;20289;-57
2024/02/11 03:03:42;;;;;;;4.27;2.83;;;;;;;;;;6338413;28;20292;-57
2024/02/11 03:06:47;;;;;;;6.03;3.30;;;;;;;;;;6358753;28;20287;-57
2024/02/11 03:09:52;;;;;;;2.97;2.73;;;;;;;;;;6357950;28;20300;-57
2024/02/11 03:12:56;;;;;;;3.00;2.80;;;;;;;;;;6383434;27;20552;-58
2024/02/11 03:16:00;;;;;;;3.23;2.80;;;;;;;;;;6374626;27;20367;-56
2024/02/11 03:19:06;;;;;;;3.77;3.20;;;;;;;;;;6357706;28;20299;-57
2024/02/11 03:22:12;;;;;;;3.50;3.27;;;;;;;;;;6357999;28;20300;-56
2024/02/11 03:25:18;;;;;;;3.47;3.17;;;;;;;;;;6358128;28;20296;-55
2024/02/11 03:28:22;;;;;;;2.80;2.70;;;;;;;;;;6357522;28;20284;-57
2024/02/11 03:31:27;;;;;;;4.37;3.50;;;;;;;;;;6357922;28;20292;-55
2024/02/11 03:34:31;;;;;;;3.73;3.43;;;;;;;;;;6357554;28;20476;-57
2024/02/11 03:37:35;;;;;;;3.67;3.37;;;;;;;;;;6357156;28;20434;-57
2024/02/11 03:40:41;;;;;;;3.47;3.10;;;;;;;;;;6357963;28;20308;-56
2024/02/11 03:43:44;;;;;;;4.28;3.92;;;;;;;;;;6355513;28;20460;-57
2024/02/11 03:46:48;;;;;;;4.37;3.77;;;;;;;;;;6357866;28;20284;-57
2024/02/11 03:49:52;;;;;;;7.10;3.80;;;;;;;;;;6357336;28;20292;-56
2024/02/11 03:52:58;;;;;;;5.57;3.07;;;;;;;;;;6357099;28;20289;-57
2024/02/11 03:56:06;;;;;;;4.50;3.50;;;;;;;;;;6357200;28;20680;-56
2024/02/11 03:59:11;;;;;;;3.20;3.00;;;;;;;;;;6356861;28;20287;-57
2024/02/11 04:02:18;;;;;;;4.73;3.30;;;;;;;;;;6359067;28;20300;-56
2024/02/11 04:05:24;;;;;;;3.17;3.03;;;;;;;;;;6374921;27;20295;-56
2024/02/11 04:08:29;;;;;;;3.60;3.40;;;;;;;;;;6356894;28;20327;-57
2024/02/11 04:11:34;;;;;;;3.83;3.57;;;;;;;;;;6357106;28;20307;-58
2024/02/11 04:14:40;;;;;;;3.70;3.47;;;;;;;;;;6356336;28;20592;-57
2024/02/11 04:17:48;;;;;;;3.30;3.10;;;;;;;;;;6357911;28;20288;-57
2024/02/11 04:20:54;;;;;;;5.50;3.73;;;;;;;;;;6357380;28;20284;-56
2024/02/11 04:23:58;;;;;;;3.90;3.50;;;;;;;;;;6382312;28;20283;-56
2024/02/11 04:27:07;;;;;;;3.50;3.27;;;;;;;;;;6382073;28;20295;-59
2024/02/11 04:30:15;;;;;;;4.07;3.57;;;;;;;;;;6382449;28;20296;-56
2024/02/11 04:33:22;;;;;;;3.60;3.40;;;;;;;;;;6382120;28;20304;-57
2024/02/11 04:36:26;;;;;;;3.80;3.60;;;;;;;;;;6372081;28;20288;-57
2024/02/11 04:39:31;;;;;;;3.97;3.60;;;;;;;;;;6356953;28;20292;-56
2024/02/11 04:42:41;;;;;;;5.20;3.47;;;;;;;;;;6357141;28;20319;-56
2024/02/11 04:45:45;;;;;;;4.57;3.83;;;;;;;;;;6356615;28;20285;-57
2024/02/11 04:48:49;;;;;;;4.63;3.73;;;;;;;;;;6356246;28;20362;-56
2024/02/11 04:51:53;;;;;;;8.40;3.73;;;;;;;;;;6356942;28;20297;-56
2024/02/11 04:54:57;;;;;;;5.23;4.10;;;;;;;;;;6355897;28;20315;-55
2024/02/11 04:58:04;;;;;;;7.27;3.43;;;;;;;;;;6356471;28;20304;-55
2024/02/11 05:01:08;;;;;;;4.30;3.93;;;;;;;;;;6356694;28;20311;-57
2024/02/11 05:04:13;;;;;;;6.00;3.70;;;;;;;;;;6356186;28;20296;-57
2024/02/11 05:07:22;;;;;;;6.77;3.70;;;;;;;;;;6356627;28;20341;-57
2024/02/11 05:10:27;;;;;;;4.80;3.90;;;;;;;;;;6356260;28;20296;-57
2024/02/11 05:13:32;;;;;;;4.93;3.70;;;;;;;;;;6356112;28;20284;-55
2024/02/11 05:16:36;;;;;;;7.27;3.60;;;;;;;;;;6356528;28;20360;-56
2024/02/11 05:19:41;;;;;;;4.80;4.03;;;;;;;;;;6355872;28;20293;-57
2024/02/11 05:22:45;;;;;;;5.73;3.90;;;;;;;;;;6355639;28;20365;-56
2024/02/11 05:25:50;;;;;;;6.60;4.00;;;;;;;;;;6356627;28;20308;-57
2024/02/11 05:28:57;;;;;;;8.57;3.93;;;;;;;;;;6360279;28;20291;-57
2024/02/11 05:32:01;;;;;;;4.80;3.97;;;;;;;;;;6360759;28;20482;-56
2024/02/11 05:35:09;;;;;;;5.07;4.40;;;;;;;;;;6360130;28;20558;-57
2024/02/11 05:38:13;;;;;;;4.23;3.83;;;;;;;;;;6360184;28;20284;-56
2024/02/11 05:41:17;;;;;;;4.60;4.20;;;;;;;;;;6360610;28;20296;-57
2024/02/11 05:44:23;;;;;;;3.87;3.60;;;;;;;;;;6359965;28;20313;-54
2024/02/11 05:47:27;;;;;;;7.57;3.93;;;;;;;;;;6360832;28;20500;-55
2024/02/11 05:50:31;;;;;;;4.40;3.90;;;;;;;;;;6360122;28;20295;-56
2024/02/11 05:53:35;;;;;;;5.30;4.90;;;;;;;;;;6360164;28;20300;-55
2024/02/11 05:56:39;;;;;;;4.63;4.17;;;;;;;;;;6360314;28;20550;-54
2024/02/11 05:59:48;;;;;;;4.83;4.43;;;;;;;;;;6359643;28;20295;-57
2024/02/11 06:02:54;;;;;;;4.50;4.20;;;;;;;;;;6359525;28;20292;-57
2024/02/11 06:05:58;;;;;;;4.90;4.23;;;;;;;;;;6360065;28;20286;-56
2024/02/11 06:09:04;;;;;;;7.03;4.57;;;;;;;;;;6359041;28;20292;-58
2024/02/11 06:12:09;;;;;;;6.03;4.60;;;;;;;;;;6383336;27;20300;-56
2024/02/11 06:15:16;;;;;;;4.73;4.23;;;;;;;;;;6382277;27;20289;-57
2024/02/11 06:18:20;;;;;;;9.37;4.47;;;;;;;;;;6341036;28;20299;-57
2024/02/11 06:21:23;;;;;;;5.13;4.70;;;;;;;;;;6360372;28;20293;-56
2024/02/11 06:24:27;;;;;;;4.70;4.30;;;;;;;;;;6359237;28;20292;-55
2024/02/11 06:27:32;;;;;;;5.73;4.23;;;;;;;;;;6359538;28;20305;-55
2024/02/11 06:30:37;;;;;;;5.80;5.30;;;;;;;;;;6357225;28;20448;-56
2024/02/11 06:33:41;;;;;;;7.70;5.57;;;;;;;;;;6357386;28;20564;-56
2024/02/11 06:36:46;;;;;;;5.20;4.77;;;;;;;;;;6358977;28;20283;-56
2024/02/11 06:39:50;;;;;;;4.83;4.43;;;;;;;;;;6359017;28;20292;-57
2024/02/11 06:42:54;;;;;;;4.80;4.50;;;;;;;;;;6358797;28;20392;-55
2024/02/11 06:46:00;;;;;;;7.20;4.70;;;;;;;;;;6359395;28;20569;-56
2024/02/11 06:49:04;;;;;;;5.00;4.33;;;;;;;;;;6358583;28;20301;-56
2024/02/11 06:52:09;;;;;;;5.20;4.60;;;;;;;;;;6358972;28;20299;-56
2024/02/11 06:55:15;;;;;;;6.27;4.30;;;;;;;;;;6358192;28;20545;-55
2024/02/11 06:58:20;;;;;;;5.37;4.70;;;;;;;;;;6358411;28;20395;-57
2024/02/11 07:01:25;;;;;;;4.70;4.30;;;;;;;;;;6359041;28;20588;-58
2024/02/11 07:04:32;;;;;;;4.60;4.20;;;;;;;;;;6357903;28;20294;-56
2024/02/11 07:07:37;;;;;;;3.93;3.63;;;;;;;;;;6358311;28;20298;-56
2024/02/11 07:10:41;;;;;;;4.63;4.33;;;;;;;;;;6358107;28;20525;-56
2024/02/11 07:13:47;;;;;;;6.70;4.07;;;;;;;;;;6383448;27;20299;-56
2024/02/11 07:16:53;;;;;;;5.27;4.77;;;;;;;;;;6367378;27;20576;-55
2024/02/11 07:19:58;;;;;;;4.53;4.23;;;;;;;;;;6357635;28;20286;-56
2024/02/11 07:23:02;;;;;;;4.70;4.30;;;;;;;;;;6357503;28;20291;-56
2024/02/11 07:26:05;;;;;;;5.60;4.70;;;;;;;;;;6358493;28;20280;-56
2024/02/11 07:29:09;;;;;;;5.57;4.37;;;;;;;;;;6357935;28;20303;-57
2024/02/11 07:32:15;;;;;;;5.40;4.90;;;;;;;;;;6358074;28;20322;-54
2024/02/11 07:35:23;;;;;;;5.40;4.23;;;;;;;;;;6357611;28;20309;-57
2024/02/11 07:38:27;;;;;;;4.63;4.30;;;;;;;;;;6357371;28;20295;-56
2024/02/11 07:41:31;;;;;;;5.67;4.70;;;;;;;;;;6357854;28;20534;-54
2024/02/11 07:44:36;;;;;;;6.87;4.77;;;;;;;;;;6357312;28;20593;-55
2024/02/11 07:47:45;;;;;;;6.43;4.67;;;;;;;;;;6357372;28;20481;-54
2024/02/11 07:50:49;;;;;;;4.80;4.40;;;;;;;;;;6356941;28;20291;-57
2024/02/11 07:53:55;;;;;;;4.50;4.20;;;;;;;;;;6357409;28;20387;-57
2024/02/11 07:56:59;;;;;;;5.47;4.63;;;;;;;;;;6357965;28;20288;-58
2024/02/11 08:00:03;;;;;;;5.20;4.40;;;;;;;;;;6356897;28;20277;-59
2024/02/11 08:03:10;;;;;;;5.10;4.70;;;;;;;;;;6357389;28;20595;-59
2024/02/11 08:06:14;;;;;;;5.17;4.50;;;;;;;;;;6357503;28;20313;-59
2024/02/11 08:09:18;;;;;;;5.10;4.70;;;;;;;;;;6356945;28;20308;-56
2024/02/11 08:12:22;;;;;;;4.63;4.33;;;;;;;;;;6332191;28;20298;-58
2024/02/11 08:15:26;;;;;;;5.07;4.47;;;;;;;;;;6340515;27;20290;-58
2024/02/11 08:18:31;;;;;;;5.63;4.63;;;;;;;;;;6382315;28;20293;-58
2024/02/11 08:21:36;;;;;;;6.10;5.50;;;;;;;;;;6381604;27;20458;-55
2024/02/11 08:24:40;;;;;;;6.67;5.27;;;;;;;;;;6382077;28;20298;-57
2024/02/11 08:27:44;;;;;;;6.10;4.70;;;;;;;;;;6382155;27;20303;-60
2024/02/11 08:30:48;;;;;;;5.20;4.70;;;;;;;;;;6382545;28;20291;-57
2024/02/11 08:33:53;;;;;;;5.03;4.53;;;;;;;;;;6382139;28;20330;-57
2024/02/11 08:36:57;;;;;;;5.43;4.60;;;;;;;;;;6382594;28;20599;-58
2024/02/11 08:40:01;;;;;;;5.43;4.37;;;;;;;;;;6382005;27;20285;-56
2024/02/11 08:43:05;;;;;;;5.40;4.23;;;;;;;;;;6381585;28;20301;-57
2024/02/11 08:46:10;;;;;;;4.93;4.63;;;;;;;;;;6382202;28;20295;-58
2024/02/11 08:49:15;;;;;;;5.20;4.80;;;;;;;;;;6381760;28;20289;-57
2024/02/11 08:52:21;;;;;;;4.50;4.30;;;;;;;;;;6382376;28;20367;-57
2024/02/11 08:55:25;;;;;;;5.27;4.77;;;;;;;;;;6381445;27;20540;-58
2024/02/11 08:58:31;;;;;;;5.27;4.77;;;;;;;;;;6381910;28;20292;-56
2024/02/11 09:01:36;;;;;;;5.17;4.50;;;;;;;;;;6385283;27;20317;-57
2024/02/11 09:04:42;;;;;;;4.50;4.07;;;;;;;;;;6386540;27;20296;-58
2024/02/11 09:07:47;;;;;;;4.80;4.50;;;;;;;;;;6386692;27;20456;-57
2024/02/11 09:10:51;;;;;;;5.03;4.53;;;;;;;;;;6374333;27;20546;-56
2024/02/11 09:13:56;;;;;;;4.40;4.10;;;;;;;;;;6361098;28;20285;-56
2024/02/11 09:17:00;;;;;;;5.10;4.50;;;;;;;;;;6350361;28;20294;-57
2024/02/11 09:20:08;;;;;;;4.73;4.30;;;;;;;;;;6360081;28;20466;-57
2024/02/11 09:23:12;;;;;;;7.33;4.43;;;;;;;;;;6385790;27;20295;-58
2024/02/11 09:26:16;;;;;;;5.23;3.90;;;;;;;;;;6386382;27;20366;-56
2024/02/11 09:29:22;;;;;;;5.53;4.17;;;;;;;;;;6385064;27;20296;-56
2024/02/11 09:32:26;;;;;;;7.03;4.23;;;;;;;;;;6386616;27;20304;-56
2024/02/11 09:35:32;;;;;;;4.10;3.80;;;;;;;;;;6385584;27;20285;-57
2024/02/11 09:38:37;;;;;;;5.73;4.00;;;;;;;;;;6385494;27;20305;-54
2024/02/11 09:41:41;;;;;;;4.53;4.13;;;;;;;;;;6386358;27;20295;-58
2024/02/11 09:44:45;;;;;;;4.27;3.93;;;;;;;;;;6385529;27;20294;-58
2024/02/11 09:47:53;;;;;;;4.20;3.90;;;;;;;;;;6385650;27;20286;-60
2024/02/11 09:50:59;;;;;;;5.97;4.20;;;;;;;;;;6368230;27;20289;-57
2024/02/11 09:54:04;;;;;;;4.63;4.33;;;;;;;;;;6376712;27;20367;-57
2024/02/11 09:57:08;;;;;;;6.60;4.73;;;;;;;;;;6385744;27;20513;-57
2024/02/11 10:00:13;;;;;;;4.70;4.30;;;;;;;;;;6385254;27;20293;-58
2024/02/11 10:03:18;;;;;;;5.50;4.30;;;;;;;;;;6385555;27;20290;-55
2024/02/11 10:06:28;;;;;;;5.00;4.33;;;;;;;;;;6385674;27;20451;-55
2024/02/11 10:09:37;;;;;;;5.00;4.50;;;;;;;;;;6383132;27;20289;-56
2024/02/11 10:12:42;;;;;;;8.93;4.13;;;;;;;;;;6359056;28;20304;-57
2024/02/11 10:15:47;;;;;;;5.30;4.80;;;;;;;;;;6367204;27;20289;-56
2024/02/11 10:18:53;;;;;;;5.97;4.47;;;;;;;;;;6384894;27;20286;-54
2024/02/11 10:21:58;;;;;;;4.90;4.60;;;;;;;;;;6385004;27;20287;-58
2024/02/11 10:25:22;;;;;;;5.23;4.53;;;;;;;;;;6384700;27;20350;-56
2024/02/11 10:28:27;;;;;;;5.40;5.00;;;;;;;;;;6384961;27;20304;-58
2024/02/11 10:31:31;;;;;;;5.07;4.67;;;;;;;;;;6385305;27;20289;-59
2024/02/11 10:34:35;;;;;;;5.50;5.03;;;;;;;;;;6384868;27;20591;-59
2024/02/11 10:37:41;;;;;;;5.90;4.93;;;;;;;;;;6384538;27;20322;-56
2024/02/11 10:40:46;;;;;;;6.83;5.17;;;;;;;;;;6385230;27;20290;-57
2024/02/11 10:43:51;;;;;;;6.07;5.40;;;;;;;;;;6384611;27;20602;-57
2024/02/11 10:46:55;;;;;;;5.83;5.30;;;;;;;;;;6384752;27;20293;-55
2024/02/11 10:49:59;;;;;;;9.07;5.70;;;;;;;;;;6384387;27;20427;-57
2024/02/11 10:53:09;;;;;;;7.47;5.23;;;;;;;;;;6384522;27;20342;-58
2024/02/11 10:56:14;;;;;;;6.07;5.23;;;;;;;;;;6384460;27;20305;-58
2024/02/11 10:59:26;;;;;;;6.50;5.67;;;;;;;;;;6383723;27;20305;-58
2024/02/11 11:02:31;;;;;;;7.87;5.83;;;;;;;;;;6384350;27;20576;-54
2024/02/11 11:05:37;;;;;;;6.80;5.83;;;;;;;;;;6381628;27;20295;-57
2024/02/11 11:08:43;;;;;;;5.80;5.27;;;;;;;;;;6383854;27;20617;-58
2024/02/11 11:11:47;;;;;;;6.37;5.67;;;;;;;;;;6363574;27;20291;-56
2024/02/11 11:14:56;;;;;;;6.23;5.63;;;;;;;;;;6358392;28;20291;-56
2024/02/11 11:18:01;;;;;;;9.47;5.43;;;;;;;;;;6333224;28;20290;-57
2024/02/11 11:21:07;;;;;;;7.50;6.13;;;;;;;;;;6321810;28;20288;-56
2024/02/11 11:24:16;;;;;;;11.53;6.53;;;;;;;;;;6331541;28;20294;-56
2024/02/11 11:27:21;;;;;;;6.83;6.13;;;;;;;;;;6333319;28;20298;-58
2024/02/11 11:30:25;;;;;;;12.07;6.10;;;;;;;;;;6332361;28;20551;-57
2024/02/11 11:33:34;;;;;;;10.47;6.27;;;;;;;;;;6332737;28;20338;-58
2024/02/11 11:36:39;;;;;;;7.87;5.87;;;;;;;;;;6333505;28;20292;-58
2024/02/11 11:39:45;;;;;;;7.40;5.27;;;;;;;;;;6332963;28;20377;-55
2024/02/11 11:42:49;;;;;;;10.70;7.03;;;;;;;;;;6332278;28;20296;-55
2024/02/11 11:45:57;;;;;;;6.33;5.83;;;;;;;;;;6332892;28;20576;-55
2024/02/11 11:49:02;;;;;;;9.10;7.72;;;;;;;;;;6330785;28;20469;-57
2024/02/11 11:52:08;;;;;;;7.63;6.83;;;;;;;;;;6333060;28;20292;-58
2024/02/11 11:55:13;;;;;;;8.33;6.40;;;;;;;;;;6323108;28;20301;-57
2024/02/11 11:58:20;;;;;;;5.93;5.30;;;;;;;;;;6332956;28;20295;-57
2024/02/11 12:01:24;;;;;;;10.70;5.30;;;;;;;;;;6332844;28;20536;-56
2024/02/11 12:04:29;;;;;;;9.03;7.93;;;;;;;;;;6329446;28;20465;-57
2024/02/11 12:07:33;;;;;;;6.90;6.20;;;;;;;;;;6330375;28;20665;-57
2024/02/11 12:10:38;;;;;;;7.17;6.23;;;;;;;;;;6342509;28;20292;-57
2024/02/11 12:13:44;;;;;;;12.50;5.90;;;;;;;;;;6357516;28;20295;-57
2024/02/11 12:16:49;;;;;;;6.93;6.03;;;;;;;;;;6357687;28;20284;-59
2024/02/11 12:19:54;;;;;;;6.37;5.77;;;;;;;;;;6382415;28;20286;-57
2024/02/11 12:22:58;;;;;;;10.80;5.37;;;;;;;;;;6382511;28;20399;-57
2024/02/11 12:26:04;;;;;;;6.23;5.30;;;;;;;;;;6383252;28;20305;-57
2024/02/11 12:29:09;;;;;;;7.43;5.70;;;;;;;;;;6380100;27;20302;-56
2024/02/11 12:32:18;;;;;;;9.90;5.87;;;;;;;;;;6332578;28;20303;-58
2024/02/11 12:35:29;;;;;;;6.33;5.73;;;;;;;;;;6333067;28;20298;-57
2024/02/11 12:38:33;;;;;;;5.53;5.03;;;;;;;;;;6337105;28;20548;-56
2024/02/11 12:41:40;;;;;;;6.60;5.73;;;;;;;;;;6337401;28;20300;-57
2024/02/11 12:44:44;;;;;;;8.87;6.40;;;;;;;;;;6336776;28;20614;-55
2024/02/11 12:47:48;;;;;;;8.90;6.20;;;;;;;;;;6336563;28;20300;-55
2024/02/11 12:50:53;;;;;;;8.97;6.23;;;;;;;;;;6336548;28;20287;-56
2024/02/11 12:53:57;;;;;;;10.63;5.63;;;;;;;;;;6328203;28;20297;-56
2024/02/11 12:57:05;;;;;;;6.73;6.03;;;;;;;;;;6336816;28;20292;-58
2024/02/11 13:00:10;;;;;;;8.97;6.70;;;;;;;;;;6335836;28;20375;-53
2024/02/11 13:03:14;;;;;;;8.60;6.63;;;;;;;;;;6335896;28;20444;-56
2024/02/11 13:06:18;;;;;;;11.83;5.87;;;;;;;;;;6335447;28;20296;-55
2024/02/11 13:09:22;;;;;;;7.83;6.60;;;;;;;;;;6335796;28;20308;-57
2024/02/11 13:12:27;;;;;;;6.87;6.20;;;;;;;;;;6361846;28;20289;-55
2024/02/11 13:15:33;;;;;;;7.77;6.40;;;;;;;;;;6361548;28;20310;-56
2024/02/11 13:18:37;;;;;;;8.90;6.63;;;;;;;;;;6385132;27;20290;-56
2024/02/11 13:21:46;;;;;;;10.23;7.43;;;;;;;;;;6386996;27;20290;-57
2024/02/11 13:24:55;;;;;;;8.73;6.87;;;;;;;;;;6385681;27;20291;-57
2024/02/11 13:28:01;;;;;;;8.63;6.70;;;;;;;;;;6386623;27;20310;-56
2024/02/11 13:31:05;;;;;;;8.53;6.57;;;;;;;;;;6387127;27;20341;-55
2024/02/11 13:34:26;;;;;;;8.23;6.50;;;;;;;;;;6386231;27;20290;-57
2024/02/11 13:37:30;;;;;;;7.20;6.03;;;;;;;;;;6386701;27;20602;-56
2024/02/11 13:40:34;;;;;;;10.27;6.70;;;;;;;;;;6386033;27;20475;-55
2024/02/11 13:43:39;;;;;;;9.00;6.53;;;;;;;;;;6385914;27;20292;-55
2024/02/11 13:46:43;;;;;;;6.90;6.10;;;;;;;;;;6385727;27;20310;-57
2024/02/11 13:49:47;;;;;;;7.40;6.70;;;;;;;;;;6386024;27;20466;-57
2024/02/11 13:52:51;;;;;;;8.43;6.90;;;;;;;;;;6385044;27;20293;-55
2024/02/11 13:55:56;;;;;;;9.37;6.57;;;;;;;;;;6361084;28;20362;-56
2024/02/11 13:59:02;;;;;;;8.50;6.37;;;;;;;;;;6360556;28;20291;-58
2024/02/11 14:02:07;;;;;;;8.47;6.00;;;;;;;;;;6361130;28;20274;-54
2024/02/11 14:05:14;;;;;;;8.13;6.47;;;;;;;;;;6356758;28;20295;-55
2024/02/11 14:08:18;;;;;;;8.33;6.13;;;;;;;;;;6341910;28;20293;-57
2024/02/11 14:11:24;;;;;;;8.57;5.90;;;;;;;;;;6360828;28;20290;-53
2024/02/11 14:14:30;;;;;;;9.23;5.97;;;;;;;;;;6360441;28;20290;-55
2024/02/11 14:17:36;;;;;;;7.83;6.37;;;;;;;;;;6360779;28;20397;-56
2024/02/11 14:20:40;;;;;;;10.00;6.60;;;;;;;;;;6359813;28;20294;-57
2024/02/11 14:23:44;;;;;;;6.43;5.83;;;;;;;;;;6359969;28;20302;-53
2024/02/11 14:26:53;;;;;;;6.33;5.80;;;;;;;;;;6360973;28;20342;-56
2024/02/11 14:29:58;;;;;;;6.00;5.40;;;;;;;;;;6359903;28;20574;-57
2024/02/11 14:33:03;;;;;;;6.93;6.20;;;;;;;;;;6359654;28;20303;-55
2024/02/11 14:36:07;;;;;;;9.90;6.23;;;;;;;;;;6360037;28;20298;-54
2024/02/11 14:39:12;;;;;;;9.67;5.63;;;;;;;;;;6359371;28;20422;-57
2024/02/11 14:42:17;;;;;;;7.97;5.67;;;;;;;;;;6359753;28;20396;-56
2024/02/11 14:45:26;;;;;;;7.90;5.60;;;;;;;;;;6347645;28;20582;-57
2024/02/11 14:48:30;;;;;;;6.20;5.60;;;;;;;;;;6358428;28;20303;-52
2024/02/11 14:51:35;;;;;;;9.30;5.60;;;;;;;;;;6359051;28;20286;-56
2024/02/11 14:54:39;;;;;;;5.97;5.50;;;;;;;;;;6358189;28;20596;-57
2024/02/11 14:57:46;;;;;;;8.23;5.17;;;;;;;;;;6358557;28;20291;-56
2024/02/11 15:00:54;;;;;;;7.17;5.50;;;;;;;;;;6359389;28;20295;-57
2024/02/11 15:03:58;;;;;;;5.80;4.97;;;;;;;;;;6359011;28;20288;-55
2024/02/11 15:07:05;;;;;;;8.07;5.27;;;;;;;;;;6359842;28;20223;-56
2024/02/11 15:10:12;;;;;;;7.67;5.73;;;;;;;;;;6358532;28;20309;-54
2024/02/11 15:13:17;;;;;;;6.43;5.33;;;;;;;;;;6358640;28;20291;-57
2024/02/11 15:16:22;;;;;;;6.17;5.17;;;;;;;;;;6358879;28;20292;-57
2024/02/11 15:19:26;;;;;;;5.93;5.07;;;;;;;;;;6358363;28;20303;-56
2024/02/11 15:22:36;;;;;;;6.50;5.83;;;;;;;;;;6359162;28;20290;-56
2024/02/11 15:25:41;;;;;;;6.30;5.60;;;;;;;;;;6358537;28;20291;-56
2024/02/11 15:28:45;;;;;;;5.60;4.83;;;;;;;;;;6358358;28;20310;-55
2024/02/11 15:31:51;;;;;;;7.33;5.50;;;;;;;;;;6358330;28;20296;-55
2024/02/11 15:34:57;;;;;;;5.63;5.10;;;;;;;;;;6357726;28;20290;-56
2024/02/11 15:38:01;;;;;;;6.33;5.07;;;;;;;;;;6357868;28;20292;-57
2024/02/11 15:41:05;;;;;;;7.03;4.87;;;;;;;;;;6358554;28;20293;-59
2024/02/11 15:44:09;;;;;;;7.20;4.87;;;;;;;;;;6357141;28;20294;-56
2024/02/11 15:47:16;;;;;;;4.80;4.53;;;;;;;;;;6358251;28;20421;-57
2024/02/11 15:50:21;;;;;;;6.63;4.73;;;;;;;;;;6357797;28;20293;-55
2024/02/11 15:53:27;;;;;;;8.67;5.00;;;;;;;;;;6357342;28;20293;-54
2024/02/11 15:56:31;;;;;;;5.23;4.70;;;;;;;;;;6377949;27;20562;-56
2024/02/11 15:59:35;;;;;;;4.87;4.43;;;;;;;;;;6382921;27;20302;-55
2024/02/11 16:02:40;;;;;;;6.03;5.00;;;;;;;;;;6383546;27;20313;-56
2024/02/11 16:05:45;;;;;;;4.57;4.27;;;;;;;;;;6383098;27;20309;-55
2024/02/11 16:08:50;;;;;;;7.07;4.57;;;;;;;;;;6382790;27;20284;-55
2024/02/11 16:11:54;;;;;;;6.20;4.40;;;;;;;;;;6361185;27;20290;-55
2024/02/11 16:14:58;;;;;;;5.57;5.10;;;;;;;;;;6357454;28;20311;-57
2024/02/11 16:18:03;;;;;;;6.20;4.20;;;;;;;;;;6357062;28;20464;-57
2024/02/11 16:21:09;;;;;;;4.90;4.50;;;;;;;;;;6356935;28;20306;-53
2024/02/11 16:24:14;;;;;;;5.80;5.30;;;;;;;;;;6356921;28;20320;-55
2024/02/11 16:27:20;;;;;;;4.63;4.33;;;;;;;;;;6357429;28;20297;-57
2024/02/11 16:30:24;;;;;;;6.70;5.03;;;;;;;;;;6357186;28;20318;-58
2024/02/11 16:33:33;;;;;;;5.27;4.73;;;;;;;;;;6357237;28;20287;-56
2024/02/11 16:36:37;;;;;;;4.93;4.57;;;;;;;;;;6357926;28;20301;-55
2024/02/11 16:39:43;;;;;;;5.63;4.60;;;;;;;;;;6357364;28;20314;-55
2024/02/11 16:42:48;;;;;;;5.40;4.83;;;;;;;;;;6354241;28;20377;-56
2024/02/11 16:45:52;;;;;;;5.00;4.47;;;;;;;;;;6339403;28;20290;-56
2024/02/11 16:48:57;;;;;;;5.23;4.53;;;;;;;;;;6355605;28;20292;-56
2024/02/11 16:52:04;;;;;;;6.03;5.10;;;;;;;;;;6356435;28;20294;-56
2024/02/11 16:55:09;;;;;;;5.83;5.10;;;;;;;;;;6357495;28;20299;-56
2024/02/11 16:58:13;;;;;;;9.17;5.17;;;;;;;;;;6357520;28;20287;-56
2024/02/11 17:01:17;;;;;;;6.17;4.47;;;;;;;;;;6357480;28;20478;-55
2024/02/11 17:04:24;;;;;;;8.07;5.30;;;;;;;;;;6356833;28;20298;-56
2024/02/11 17:07:28;;;;;;;6.30;4.57;;;;;;;;;;6357087;28;20293;-56
2024/02/11 17:10:32;;;;;;;5.67;4.90;;;;;;;;;;6356465;28;20301;-54
2024/02/11 17:13:38;;;;;;;6.83;4.60;;;;;;;;;;6357020;28;20607;-54
2024/02/11 17:16:43;;;;;;;5.20;4.73;;;;;;;;;;6356958;28;20453;-57
2024/02/11 17:19:48;;;;;;;6.67;5.27;;;;;;;;;;6356817;28;20356;-57
2024/02/11 17:22:57;;;;;;;6.73;5.27;;;;;;;;;;6350727;28;20288;-54
2024/02/11 17:26:03;;;;;;;9.17;5.10;;;;;;;;;;6387453;27;20289;-55
2024/02/11 17:29:10;;;;;;;5.23;4.60;;;;;;;;;;6386591;27;20586;-56
2024/02/11 17:32:14;;;;;;;5.77;4.70;;;;;;;;;;6387152;27;20292;-58
2024/02/11 17:35:33;;;;;;;6.13;5.53;;;;;;;;;;6386275;27;20298;-57
2024/02/11 17:38:38;;;;;;;7.43;5.00;;;;;;;;;;6386556;27;20305;-56
2024/02/11 17:41:44;;;;;;;6.93;5.80;;;;;;;;;;6387209;27;20565;-55
2024/02/11 17:44:50;;;;;;;5.10;4.70;;;;;;;;;;6386511;27;20372;-53
2024/02/11 17:47:56;;;;;;;8.33;4.63;;;;;;;;;;6385887;27;20544;-56
2024/02/11 17:51:01;;;;;;;4.90;4.57;;;;;;;;;;6368412;27;20293;-56
2024/02/11 17:54:05;;;;;;;4.90;4.33;;;;;;;;;;6385266;27;20284;-55
2024/02/11 17:57:10;;;;;;;7.77;4.60;;;;;;;;;;6386143;27;20433;-55
2024/02/11 18:00:19;;;;;;;4.77;4.27;;;;;;;;;;6386359;27;20451;-56
2024/02/11 18:03:26;;;;;;;5.63;5.10;;;;;;;;;;6386592;27;20289;-56
2024/02/11 18:06:31;;;;;;;8.23;4.90;;;;;;;;;;6368364;27;20288;-57
2024/02/11 18:09:38;;;;;;;9.07;4.93;;;;;;;;;;6383323;27;20376;-56
2024/02/11 18:12:43;;;;;;;5.67;4.97;;;;;;;;;;6359882;28;20484;-56
2024/02/11 18:15:48;;;;;;;4.57;4.17;;;;;;;;;;6353307;28;20456;-55
2024/02/11 18:18:53;;;;;;;5.23;4.60;;;;;;;;;;6352087;28;20293;-57
2024/02/11 18:21:59;;;;;;;5.30;4.77;;;;;;;;;;6360412;28;20286;-56
2024/02/11 18:25:06;;;;;;;5.87;5.13;;;;;;;;;;6357228;27;20578;-57
2024/02/11 18:28:10;;;;;;;5.50;5.03;;;;;;;;;;6385293;27;20285;-54
2024/02/11 18:31:15;;;;;;;4.97;4.57;;;;;;;;;;6385682;27;20299;-56